createdAt,value
2023-02-11T00:01:37.083Z,55.33
2023-02-11T00:04:10.750Z,59.58
2023-02-11T00:06:44.431Z,60.58
2023-02-11T00:09:17.985Z,54.50
2023-02-11T00:11:51.795Z,57.72
2023-02-11T00:14:27.331Z,53.05
2023-02-11T00:17:01.640Z,58.92
2023-02-11T00:19:35.219Z,52.30
2023-02-11T00:22:09.066Z,54.33
2023-02-11T00:24:42.738Z,53.40
2023-02-11T00:27:16.529Z,52.15
2023-02-11T00:29:51.429Z,52.20
2023-02-11T00:32:25.358Z,55.60
2023-02-11T00:34:58.927Z,59.75
2023-02-11T00:37:36.393Z,53.92
2023-02-11T00:40:10.935Z,53.95
2023-02-11T00:42:44.816Z,62.65
2023-02-11T00:45:21.287Z,62.78
2023-02-11T00:47:55.148Z,57.35
2023-02-11T00:50:28.766Z,65.72
2023-02-11T00:53:02.589Z,58.78
2023-02-11T00:55:36.210Z,59.85
2023-02-11T00:58:09.922Z,54.30
2023-02-11T01:00:45.054Z,59.33
2023-02-11T01:03:18.825Z,63.25
2023-02-11T01:05:53.457Z,58.22
2023-02-11T01:08:27.808Z,70.30
2023-02-11T01:11:03.560Z,55.80
2023-02-11T01:13:38.144Z,55.20
2023-02-11T01:16:16.240Z,66.90
2023-02-11T01:18:50.516Z,59.22
2023-02-11T01:21:24.174Z,54.67
2023-02-11T01:23:58.021Z,63.17
2023-02-11T01:26:31.643Z,55.90
2023-02-11T01:29:05.340Z,66.05
2023-02-11T01:31:40.399Z,58.80
2023-02-11T01:34:15.188Z,55.60
2023-02-11T01:36:48.997Z,55.00
2023-02-11T01:39:22.904Z,55.63
2023-02-11T01:41:56.645Z,64.60
2023-02-11T01:44:32.378Z,57.15
2023-02-11T01:47:07.900Z,55.72
2023-02-11T01:49:45.611Z,61.22
2023-02-11T01:52:22.895Z,65.60
2023-02-11T01:55:18.106Z,59.30
2023-02-11T01:57:56.364Z,55.05
2023-02-11T02:00:35.658Z,55.65
2023-02-11T02:03:15.554Z,56.28
2023-02-11T02:05:54.879Z,54.65
2023-02-11T02:08:35.097Z,57.17
2023-02-11T02:11:09.430Z,59.05
2023-02-11T02:13:43.132Z,59.90
2023-02-11T02:16:20.512Z,55.97
2023-02-11T02:19:04.256Z,57.50
2023-02-11T02:21:59.259Z,65.22
2023-02-11T02:24:57.719Z,56.33
2023-02-11T02:27:43.398Z,56.03
2023-02-11T02:31:06.506Z,56.88
2023-02-11T02:33:54.264Z,54.88
2023-02-11T02:36:35.665Z,59.50
2023-02-11T02:39:13.641Z,56.25
2023-02-11T02:41:49.692Z,51.97
2023-02-11T02:44:24.185Z,54.53
2023-02-11T02:46:58.458Z,62.83
2023-02-11T02:49:33.932Z,59.30
2023-02-11T02:52:27.763Z,59.85
2023-02-11T02:55:13.925Z,50.03
2023-02-11T02:58:11.700Z,50.70
2023-02-11T03:00:50.779Z,55.72
2023-02-11T03:06:09.882Z,49.25
2023-02-11T03:08:47.962Z,45.63
2023-02-11T03:11:23.058Z,47.20
2023-02-11T03:13:58.240Z,54.20
2023-02-11T03:16:36.048Z,49.72
2023-02-11T03:19:14.241Z,49.40
2023-02-11T03:21:52.809Z,48.90
2023-02-11T03:24:30.701Z,56.10
2023-02-11T03:27:10.407Z,47.35
2023-02-11T03:29:51.578Z,50.28
2023-02-11T03:32:30.371Z,56.35
2023-02-11T03:35:10.162Z,48.15
2023-02-11T03:37:52.533Z,53.80
2023-02-11T03:40:29.608Z,44.60
2023-02-11T03:43:11.481Z,50.67
2023-02-11T03:45:47.152Z,48.35
2023-02-11T03:48:24.763Z,46.53
2023-02-11T03:51:00.978Z,45.03
2023-02-11T03:53:37.524Z,49.53
2023-02-11T03:56:15.780Z,44.47
2023-02-11T03:58:49.930Z,46.22
2023-02-11T04:01:23.895Z,41.55
2023-02-11T04:03:57.887Z,53.92
2023-02-11T04:06:31.505Z,50.80
2023-02-11T04:09:06.926Z,48.80
2023-02-11T04:11:40.560Z,47.50
2023-02-11T04:14:14.305Z,44.63
2023-02-11T04:16:47.986Z,47.55
2023-02-11T04:19:21.871Z,44.40
2023-02-11T04:21:55.499Z,42.45
2023-02-11T04:24:30.600Z,41.92
2023-02-11T04:27:04.504Z,41.25
2023-02-11T04:29:38.514Z,42.20
2023-02-11T04:32:12.578Z,43.78
2023-02-11T04:34:46.397Z,45.65
2023-02-11T04:37:20.038Z,34.85
2023-02-11T04:39:55.401Z,38.17
2023-02-11T04:42:29.372Z,42.88
2023-02-11T04:45:03.235Z,36.28
2023-02-11T04:47:37.932Z,38.63
2023-02-11T04:50:11.869Z,45.90
2023-02-11T04:52:45.569Z,42.80
2023-02-11T04:55:20.713Z,41.30
2023-02-11T04:57:55.288Z,39.47
2023-02-11T05:00:29.160Z,48.88
2023-02-11T05:03:02.881Z,38.20
2023-02-11T05:05:39.698Z,32.97
2023-02-11T05:08:13.408Z,42.08
2023-02-11T05:10:49.055Z,37.08
2023-02-11T05:13:22.803Z,42.60
2023-02-11T05:15:56.864Z,39.75
2023-02-11T05:18:30.408Z,41.45
2023-02-11T05:21:07.580Z,39.95
2023-02-11T05:23:41.783Z,36.08
2023-02-11T05:26:16.939Z,40.45
2023-02-11T05:28:50.633Z,41.65
2023-02-11T05:31:24.555Z,34.65
2023-02-11T05:33:58.081Z,34.72
2023-02-11T05:36:33.448Z,36.40
2023-02-11T05:39:07.500Z,29.70
2023-02-11T05:41:42.796Z,34.83
2023-02-11T05:44:16.420Z,30.08
2023-02-11T05:46:50.330Z,31.70
2023-02-11T05:49:24.117Z,36.60
2023-02-11T05:51:57.968Z,29.65
2023-02-11T05:54:31.570Z,28.23
2023-02-11T05:57:06.834Z,29.63
2023-02-11T05:59:40.924Z,26.70
2023-02-11T06:02:14.682Z,28.90
2023-02-11T06:04:48.248Z,32.35
2023-02-11T06:07:22.001Z,29.17
2023-02-11T06:09:55.658Z,35.58
2023-02-11T06:12:30.772Z,33.47
2023-02-11T06:15:05.298Z,31.92
2023-02-11T06:17:39.408Z,28.90
2023-02-11T06:20:13.683Z,32.97
2023-02-11T06:22:48.164Z,36.42
2023-02-11T06:25:21.909Z,33.60
2023-02-11T06:27:57.054Z,28.67
2023-02-11T06:30:30.638Z,31.85
2023-02-11T06:33:04.528Z,32.13
2023-02-11T06:35:39.511Z,29.23
2023-02-11T06:38:13.390Z,33.20
2023-02-11T06:40:51.411Z,32.33
2023-02-11T06:43:26.484Z,30.23
2023-02-11T06:46:00.144Z,34.15
2023-02-11T06:48:34.052Z,26.67
2023-02-11T06:51:09.774Z,23.70
2023-02-11T06:53:46.127Z,28.55
2023-02-11T06:56:21.678Z,26.20
2023-02-11T06:58:57.376Z,27.27
2023-02-11T07:01:30.969Z,28.30
2023-02-11T07:04:04.809Z,30.90
2023-02-11T07:06:38.578Z,19.63
2023-02-11T07:09:12.419Z,24.30
2023-02-11T07:11:45.937Z,22.55
2023-02-11T07:14:21.172Z,26.35
2023-02-11T07:16:54.720Z,28.67
2023-02-11T07:19:28.579Z,24.88
2023-02-11T07:22:02.110Z,22.42
2023-02-11T07:24:35.913Z,23.33
2023-02-11T07:27:09.478Z,25.35
2023-02-11T07:29:45.950Z,25.88
2023-02-11T07:32:19.572Z,20.23
2023-02-11T07:34:53.515Z,25.83
2023-02-11T07:37:27.255Z,24.80
2023-02-11T07:40:01.209Z,23.20
2023-02-11T07:42:35.691Z,27.00
2023-02-11T07:45:11.183Z,27.70
2023-02-11T07:47:45.752Z,30.10
2023-02-11T07:50:25.723Z,24.30
2023-02-11T07:52:59.229Z,27.27
2023-02-11T07:55:34.260Z,26.83
2023-02-11T07:58:07.849Z,28.52
2023-02-11T08:00:42.987Z,34.83
2023-02-11T08:03:16.608Z,32.83
2023-02-11T08:05:50.619Z,37.25
2023-02-11T08:08:24.365Z,28.20
2023-02-11T08:10:58.070Z,26.13
2023-02-11T08:13:31.667Z,29.83
2023-02-11T08:16:07.875Z,29.65
2023-02-11T08:18:41.571Z,24.83
2023-02-11T08:21:15.374Z,27.52
2023-02-11T08:23:49.694Z,28.88
2023-02-11T08:26:26.596Z,23.83
2023-02-11T08:29:00.476Z,34.88
2023-02-11T08:31:37.879Z,27.98
2023-02-11T08:34:14.101Z,26.25
2023-02-11T08:36:48.719Z,29.42
2023-02-11T08:39:23.502Z,27.55
2023-02-11T08:41:57.935Z,30.88
2023-02-11T08:44:31.512Z,24.65
2023-02-11T08:47:06.605Z,27.60
2023-02-11T08:49:42.316Z,26.65
2023-02-11T08:52:16.195Z,29.73
2023-02-11T08:54:50.868Z,27.77
2023-02-11T08:57:24.738Z,29.42
2023-02-11T08:59:58.424Z,30.73
2023-02-11T09:02:33.609Z,23.88
2023-02-11T09:05:08.394Z,30.88
2023-02-11T09:07:42.214Z,22.25
2023-02-11T09:10:15.927Z,26.45
2023-02-11T09:12:49.679Z,25.42
2023-02-11T09:15:23.283Z,26.40
2023-02-11T09:17:58.507Z,25.35
2023-02-11T09:20:32.224Z,24.33
2023-02-11T09:23:06.078Z,29.73
2023-02-11T09:25:41.052Z,31.40
2023-02-11T09:28:14.898Z,24.20
2023-02-11T09:30:48.650Z,30.05
2023-02-11T09:33:23.815Z,25.70
2023-02-11T09:35:57.456Z,27.17
2023-02-11T09:38:32.608Z,22.63
2023-02-11T09:41:08.571Z,31.88
2023-02-11T09:43:47.595Z,25.33
2023-02-11T09:46:22.564Z,28.48
2023-02-11T09:48:58.161Z,24.15
2023-02-11T09:51:41.851Z,27.77
2023-02-11T09:54:22.046Z,29.10
2023-02-11T09:56:55.524Z,22.67
2023-02-11T09:59:29.397Z,21.92
2023-02-11T10:02:10.781Z,22.05
2023-02-11T10:05:06.771Z,20.63
2023-02-11T10:07:49.353Z,28.63
2023-02-11T10:10:37.514Z,31.33
2023-02-11T10:13:29.714Z,23.10
2023-02-11T10:16:15.828Z,23.02
2023-02-11T10:19:31.593Z,31.35
2023-02-11T10:25:21.977Z,23.50
2023-02-11T10:28:00.850Z,24.13
2023-02-11T10:30:38.565Z,23.50
2023-02-11T10:33:21.280Z,19.17
2023-02-11T10:35:55.364Z,31.20
2023-02-11T10:38:29.521Z,25.80
2023-02-11T10:41:04.853Z,20.10
2023-02-11T10:43:42.576Z,25.17
2023-02-11T10:46:21.506Z,19.38
2023-02-11T10:48:55.571Z,26.33
2023-02-11T10:51:31.561Z,17.85
2023-02-11T10:54:21.235Z,21.45
2023-02-11T10:57:00.951Z,19.25
2023-02-11T10:59:40.294Z,22.83
2023-02-11T11:02:24.601Z,21.05
2023-02-11T11:04:59.948Z,20.45
2023-02-11T11:07:35.290Z,24.67
2023-02-11T11:10:27.991Z,18.00
2023-02-11T11:13:02.852Z,28.73
2023-02-11T11:15:36.773Z,35.15
2023-02-11T11:18:22.177Z,13.48
2023-02-11T11:21:00.837Z,13.40
2023-02-11T11:23:36.865Z,17.17
2023-02-11T11:26:13.466Z,21.38
2023-02-11T11:29:02.501Z,16.05
2023-02-11T11:31:48.410Z,26.45
2023-02-11T11:34:28.019Z,16.10
2023-02-11T11:37:11.455Z,21.58
2023-02-11T11:39:55.428Z,18.17
2023-02-11T11:42:31.472Z,15.38
2023-02-11T11:45:26.552Z,15.75
2023-02-11T11:48:06.996Z,12.50
2023-02-11T11:50:44.430Z,13.95
2023-02-11T11:53:24.630Z,14.20
2023-02-11T11:56:02.667Z,20.45
2023-02-11T11:58:36.672Z,17.75
2023-02-11T12:01:25.085Z,17.83
2023-02-11T12:04:20.502Z,13.65
2023-02-11T12:07:06.306Z,8.68
2023-02-11T12:09:51.935Z,12.70
2023-02-11T12:12:40.182Z,12.77
2023-02-11T12:15:29.557Z,10.35
2023-02-11T12:18:18.746Z,12.35
2023-02-11T12:21:16.401Z,8.80
2023-02-11T12:24:07.143Z,13.70
2023-02-11T12:26:46.041Z,10.55
2023-02-11T12:29:29.892Z,11.50
2023-02-11T12:32:14.851Z,10.57
2023-02-11T12:35:10.419Z,8.43
2023-02-11T12:37:55.050Z,10.80
2023-02-11T12:40:46.224Z,10.82
2023-02-11T12:43:24.905Z,8.02
2023-02-11T12:46:09.382Z,11.38
2023-02-11T12:49:02.049Z,14.60
2023-02-11T12:51:56.492Z,10.38
2023-02-11T12:54:36.181Z,16.60
2023-02-11T12:57:19.279Z,14.98
2023-02-11T13:00:00.772Z,12.15
2023-02-11T13:02:43.359Z,13.43
2023-02-11T13:05:25.999Z,11.98
2023-02-11T13:08:06.512Z,10.82
2023-02-11T13:10:44.231Z,15.15
2023-02-11T13:13:22.392Z,17.10
2023-02-11T13:16:00.687Z,13.13
2023-02-11T13:18:50.486Z,13.90
2023-02-11T13:21:37.306Z,16.38
2023-02-11T13:24:20.779Z,12.63
2023-02-11T13:27:02.096Z,14.68
2023-02-11T13:29:49.138Z,13.02
2023-02-11T13:32:23.340Z,27.45
2023-02-11T13:34:59.585Z,13.07
2023-02-11T13:37:37.504Z,16.77
2023-02-11T13:40:24.115Z,18.23
2023-02-11T13:43:00.141Z,16.40
2023-02-11T13:45:39.716Z,19.00
2023-02-11T13:48:19.276Z,22.98
2023-02-11T13:50:56.446Z,19.73
2023-02-11T13:53:31.004Z,27.20
2023-02-11T13:56:11.290Z,25.83
2023-02-11T13:58:49.513Z,23.60
2023-02-11T14:02:16.193Z,23.15
2023-02-11T14:05:31.649Z,21.75
2023-02-11T14:08:43.248Z,23.77
2023-02-11T14:11:46.674Z,21.02
2023-02-11T14:14:23.873Z,18.98
2023-02-11T14:17:31.824Z,22.55
2023-02-11T14:20:26.309Z,12.00
2023-02-11T14:23:00.456Z,23.48
2023-02-11T14:25:34.364Z,21.70
2023-02-11T14:28:21.997Z,13.38
2023-02-11T14:31:05.814Z,19.30
2023-02-11T14:34:01.735Z,14.05
2023-02-11T14:36:56.636Z,14.63
2023-02-11T14:39:45.566Z,26.27
2023-02-11T14:42:22.700Z,29.30
2023-02-11T14:45:00.405Z,17.48
2023-02-11T14:47:41.419Z,18.15
2023-02-11T14:50:19.648Z,16.90
2023-02-11T14:52:54.352Z,16.87
2023-02-11T14:55:33.084Z,19.80
2023-02-11T14:58:16.295Z,16.83
2023-02-11T15:00:54.655Z,18.40
2023-02-11T15:03:35.240Z,17.88
2023-02-11T15:06:18.423Z,11.82
2023-02-11T15:08:54.585Z,14.07
2023-02-11T15:11:30.922Z,15.77
2023-02-11T15:14:10.145Z,15.05
2023-02-11T15:16:46.565Z,16.45
2023-02-11T15:19:25.794Z,13.20
2023-02-11T15:22:00.444Z,20.73
2023-02-11T15:24:35.895Z,16.63
2023-02-11T15:27:15.430Z,22.50
2023-02-11T15:29:50.981Z,14.52
2023-02-11T15:32:27.985Z,54.85
2023-02-11T15:35:02.399Z,31.35
2023-02-11T15:37:36.369Z,28.65
2023-02-11T15:40:12.705Z,14.90
2023-02-11T15:42:58.105Z,17.30
2023-02-11T15:45:34.124Z,18.27
2023-02-11T15:48:14.116Z,27.58
2023-02-11T15:50:53.758Z,26.52
2023-02-11T15:53:32.416Z,21.60
2023-02-11T15:56:15.835Z,28.27
2023-02-11T15:58:50.660Z,23.95
2023-02-11T16:01:33.583Z,20.88
2023-02-11T16:04:17.928Z,20.73
2023-02-11T16:06:51.815Z,21.58
2023-02-11T16:09:34.428Z,17.58
2023-02-11T16:12:27.096Z,25.65
2023-02-11T16:15:20.968Z,19.77
2023-02-11T16:17:54.664Z,18.35
2023-02-11T16:20:29.965Z,25.42
2023-02-11T16:23:44.092Z,25.48
2023-02-11T16:26:25.891Z,23.95
2023-02-11T16:29:12.390Z,18.08
2023-02-11T16:31:48.760Z,23.40
2023-02-11T16:34:24.416Z,39.80
2023-02-11T16:36:59.812Z,23.00
2023-02-11T16:39:34.089Z,21.23
2023-02-11T16:42:08.182Z,28.65
2023-02-11T16:44:41.904Z,18.27
2023-02-11T16:47:23.288Z,19.67
2023-02-11T16:49:57.491Z,18.55
2023-02-11T16:52:33.028Z,21.08
2023-02-11T16:55:08.803Z,24.20
2023-02-11T16:57:43.029Z,23.75
2023-02-11T17:00:18.034Z,22.40
2023-02-11T17:02:51.985Z,23.13
2023-02-11T17:05:26.880Z,29.00
2023-02-11T17:08:03.650Z,28.75
2023-02-11T17:10:37.808Z,22.88
2023-02-11T17:13:12.152Z,37.30
2023-02-11T17:16:10.469Z,29.02
